Time;durP1;ratioP1;P1;durP2;ratioP2;P2;SDS_P1;SDS_P2;PMS_P1;PMS_P2;Temp;Humidity;BMP_temperature;BMP_pressure;BME280_temperature;BME280_humidity;BME280_pressure;Samples;Min_cycle;Max_cycle;Signal;HPM_P1;HPM_P2
2023/07/01 00:00:24;;;;;;;10.52;6.60;;;;;;;;;;5035448;28;20060;-81
2023/07/01 00:02:52;;;;;;;8.65;6.25;;;;;;;;;;5018047;28;20536;-81
2023/07/01 00:05:19;;;;;;;8.15;6.97;;;;;;;;;;5018007;28;20025;-81
2023/07/01 00:07:44;;;;;;;7.85;6.80;;;;;;;;;;5035239;28;20034;-81
2023/07/01 00:10:10;;;;;;;7.65;6.88;;;;;;;;;;5017657;28;20025;-81
2023/07/01 00:12:35;;;;;;;7.63;6.70;;;;;;;;;;5017966;28;20353;-81
2023/07/01 00:15:01;;;;;;;7.60;6.90;;;;;;;;;;5017463;28;20025;-81
2023/07/01 00:17:26;;;;;;;11.40;7.53;;;;;;;;;;5035098;28;20037;-81
2023/07/01 00:19:52;;;;;;;8.65;7.25;;;;;;;;;;5017326;28;20040;-80
2023/07/01 00:22:17;;;;;;;7.88;7.13;;;;;;;;;;5017524;28;20151;-81
2023/07/01 00:24:42;;;;;;;8.40;7.00;;;;;;;;;;5017507;28;20033;-81
2023/07/01 00:27:08;;;;;;;7.63;6.93;;;;;;;;;;5035188;28;20033;-81
2023/07/01 00:29:33;;;;;;;8.32;7.53;;;;;;;;;;5017407;28;20034;-81
2023/07/01 00:31:59;;;;;;;7.55;6.88;;;;;;;;;;5017087;28;20029;-81
2023/07/01 00:34:24;;;;;;;8.40;6.95;;;;;;;;;;5017148;28;20036;-81
2023/07/01 00:36:50;;;;;;;8.40;6.57;;;;;;;;;;5017301;28;20033;-81
2023/07/01 00:39:15;;;;;;;8.95;6.70;;;;;;;;;;5034771;28;20116;-80
2023/07/01 00:41:41;;;;;;;8.27;7.18;;;;;;;;;;5017034;28;20036;-81
2023/07/01 00:44:06;;;;;;;8.52;6.90;;;;;;;;;;5017316;28;20057;-81
2023/07/01 00:46:32;;;;;;;9.90;7.22;;;;;;;;;;5000400;28;20379;-81
2023/07/01 00:49:00;;;;;;;7.40;6.70;;;;;;;;;;5000844;28;20443;-81
2023/07/01 00:51:25;;;;;;;8.27;7.20;;;;;;;;;;5017373;28;20365;-81
2023/07/01 00:53:51;;;;;;;8.18;6.90;;;;;;;;;;5000896;28;20099;-81
2023/07/01 00:56:17;;;;;;;7.90;7.10;;;;;;;;;;5000367;28;20182;-81
2023/07/01 00:58:42;;;;;;;10.65;7.28;;;;;;;;;;5034724;28;20033;-81
2023/07/01 01:01:09;;;;;;;9.88;7.25;;;;;;;;;;5034109;28;20033;-81
2023/07/01 01:03:40;;;;;;;9.57;7.50;;;;;;;;;;5016978;28;20040;-81
2023/07/01 01:06:33;;;;;;;7.75;7.03;;;;;;;;;;5000512;28;20030;-81
2023/07/01 01:09:03;;;;;;;8.00;6.97;;;;;;;;;;5001480;28;20040;-81
2023/07/01 01:11:30;;;;;;;10.45;7.85;;;;;;;;;;5016998;28;20128;-81
2023/07/01 01:13:58;;;;;;;9.90;7.00;;;;;;;;;;5000468;28;20048;-81
2023/07/01 01:16:24;;;;;;;8.70;7.80;;;;;;;;;;5016234;28;20071;-81
2023/07/01 01:18:49;;;;;;;10.43;7.93;;;;;;;;;;4984142;28;20033;-81
2023/07/01 01:21:15;;;;;;;14.95;8.27;;;;;;;;;;5000311;28;20036;-81
2023/07/01 01:23:49;;;;;;;11.38;8.18;;;;;;;;;;4984320;28;20037;-82
2023/07/01 01:26:18;;;;;;;11.52;8.43;;;;;;;;;;5000258;28;20131;-81
2023/07/01 01:28:44;;;;;;;12.73;8.32;;;;;;;;;;5000214;28;20039;-82
2023/07/01 01:31:11;;;;;;;9.38;8.38;;;;;;;;;;5016108;28;20030;-82
2023/07/01 01:33:40;;;;;;;11.45;8.43;;;;;;;;;;5000334;28;20036;-81
2023/07/01 01:36:22;;;;;;;10.38;8.10;;;;;;;;;;5016900;28;20041;-81
2023/07/01 01:38:47;;;;;;;12.77;8.27;;;;;;;;;;5016389;28;20076;-81
2023/07/01 01:41:33;;;;;;;10.27;8.07;;;;;;;;;;5000121;28;20376;-81
2023/07/01 01:44:01;;;;;;;13.25;8.18;;;;;;;;;;5017578;28;20044;-82
2023/07/01 01:46:26;;;;;;;11.05;8.35;;;;;;;;;;5016539;28;20030;-82
2023/07/01 01:48:53;;;;;;;11.20;8.68;;;;;;;;;;5016279;28;20029;-81
2023/07/01 01:51:19;;;;;;;11.52;9.02;;;;;;;;;;5034277;28;20026;-81
2023/07/01 01:53:44;;;;;;;10.90;8.52;;;;;;;;;;5016043;28;20369;-81
2023/07/01 01:56:10;;;;;;;9.52;8.57;;;;;;;;;;4999999;28;20476;-81
2023/07/01 01:58:35;;;;;;;11.40;8.13;;;;;;;;;;4999606;28;20510;-81
2023/07/01 02:01:01;;;;;;;9.18;8.27;;;;;;;;;;4999880;28;20025;-81
2023/07/01 02:03:26;;;;;;;10.52;8.02;;;;;;;;;;5016116;28;20032;-81
2023/07/01 02:05:52;;;;;;;12.20;8.00;;;;;;;;;;5000094;28;20083;-82
2023/07/01 02:08:17;;;;;;;11.45;7.95;;;;;;;;;;5016209;28;20017;-81
2023/07/01 02:10:43;;;;;;;9.07;7.90;;;;;;;;;;5016676;28;20032;-82
2023/07/01 02:13:09;;;;;;;9.68;7.70;;;;;;;;;;5019421;28;20083;-82
2023/07/01 02:15:34;;;;;;;9.63;7.32;;;;;;;;;;5019853;28;20084;-82
2023/07/01 02:18:00;;;;;;;12.45;7.68;;;;;;;;;;5019801;28;20428;-82
2023/07/01 02:20:25;;;;;;;8.82;7.35;;;;;;;;;;5020019;28;20025;-82
2023/07/01 02:22:50;;;;;;;12.68;8.07;;;;;;;;;;4987417;28;20437;-81
2023/07/01 02:25:17;;;;;;;11.30;8.20;;;;;;;;;;5019585;28;20376;-82
2023/07/01 02:27:42;;;;;;;11.88;7.63;;;;;;;;;;5037153;28;20021;-82
2023/07/01 02:30:08;;;;;;;8.35;7.55;;;;;;;;;;5003357;28;20129;-82
2023/07/01 02:32:33;;;;;;;8.65;7.75;;;;;;;;;;5003322;28;20044;-82
2023/07/01 02:34:59;;;;;;;11.18;7.88;;;;;;;;;;5003125;28;20411;-82
2023/07/01 02:37:24;;;;;;;7.88;6.93;;;;;;;;;;5019623;28;20030;-80
2023/07/01 02:39:50;;;;;;;15.48;7.40;;;;;;;;;;5037126;28;20028;-82
2023/07/01 02:42:19;;;;;;;9.93;7.30;;;;;;;;;;5019143;28;20032;-81
2023/07/01 02:44:45;;;;;;;11.30;7.27;;;;;;;;;;4988104;28;20033;-82
2023/07/01 02:47:11;;;;;;;9.02;8.13;;;;;;;;;;5019420;28;20472;-81
2023/07/01 02:49:40;;;;;;;8.43;7.60;;;;;;;;;;5037336;28;20559;-82
2023/07/01 02:52:07;;;;;;;9.73;7.53;;;;;;;;;;5019713;28;20384;-81
2023/07/01 02:54:33;;;;;;;8.73;7.80;;;;;;;;;;4986944;28;20032;-81
2023/07/01 02:56:58;;;;;;;10.60;7.97;;;;;;;;;;5019263;28;20123;-82
2023/07/01 02:59:24;;;;;;;8.75;7.55;;;;;;;;;;5002657;28;20463;-81
2023/07/01 03:01:49;;;;;;;11.75;8.10;;;;;;;;;;5019509;28;20356;-81
2023/07/01 03:04:15;;;;;;;10.07;7.50;;;;;;;;;;5002785;28;20033;-82
2023/07/01 03:06:40;;;;;;;12.95;8.02;;;;;;;;;;5002910;28;20072;-81
2023/07/01 03:09:07;;;;;;;9.98;8.30;;;;;;;;;;5002804;28;20032;-82
2023/07/01 03:11:36;;;;;;;10.68;8.57;;;;;;;;;;5019318;28;20049;-82
2023/07/01 03:14:02;;;;;;;10.98;8.52;;;;;;;;;;5019326;28;20038;-82
2023/07/01 03:16:28;;;;;;;13.77;9.40;;;;;;;;;;5018923;28;20033;-82
2023/07/01 03:18:54;;;;;;;14.70;9.18;;;;;;;;;;5002647;28;20037;-82
2023/07/01 03:21:19;;;;;;;12.50;9.02;;;;;;;;;;5002600;28;20102;-81
2023/07/01 03:23:45;;;;;;;11.43;9.35;;;;;;;;;;5036380;28;20033;-82
2023/07/01 03:26:10;;;;;;;11.27;8.73;;;;;;;;;;5018637;28;20030;-82
2023/07/01 03:28:36;;;;;;;15.73;9.27;;;;;;;;;;5018781;28;20124;-82
2023/07/01 03:31:04;;;;;;;10.27;8.27;;;;;;;;;;5002217;28;20056;-81
2023/07/01 03:33:29;;;;;;;11.23;9.57;;;;;;;;;;5018877;28;20037;-82
2023/07/01 03:35:55;;;;;;;14.57;9.38;;;;;;;;;;4986268;28;20038;-80
2023/07/01 03:38:20;;;;;;;12.15;9.18;;;;;;;;;;5019353;28;20037;-81
2023/07/01 03:40:47;;;;;;;10.00;8.98;;;;;;;;;;5018318;28;20378;-81
2023/07/01 03:43:13;;;;;;;12.55;9.07;;;;;;;;;;4986694;28;20034;-81
2023/07/01 03:45:38;;;;;;;13.38;8.57;;;;;;;;;;5018312;28;20044;-82
2023/07/01 03:48:05;;;;;;;11.40;8.90;;;;;;;;;;5035673;28;20446;-81
2023/07/01 03:50:30;;;;;;;11.52;9.20;;;;;;;;;;5018177;28;20461;-81
2023/07/01 03:52:56;;;;;;;15.05;8.68;;;;;;;;;;5001280;28;20055;-82
2023/07/01 03:55:21;;;;;;;11.65;9.13;;;;;;;;;;5001828;28;20037;-81
2023/07/01 03:57:47;;;;;;;13.32;8.65;;;;;;;;;;5001765;28;20026;-81
2023/07/01 04:00:18;;;;;;;12.48;8.18;;;;;;;;;;5035497;28;20464;-81
2023/07/01 04:02:47;;;;;;;11.48;8.48;;;;;;;;;;5018581;28;20459;-81
2023/07/01 04:05:13;;;;;;;11.88;7.75;;;;;;;;;;5017871;28;20030;-81
2023/07/01 04:07:39;;;;;;;18.77;7.97;;;;;;;;;;5017948;28;20017;-81
2023/07/01 04:10:05;;;;;;;13.80;7.95;;;;;;;;;;5017981;28;20025;-82
2023/07/01 04:12:32;;;;;;;11.27;7.53;;;;;;;;;;5017812;28;20483;-82
2023/07/01 04:14:58;;;;;;;16.80;8.10;;;;;;;;;;5035353;28;20029;-80
2023/07/01 04:17:23;;;;;;;12.38;7.10;;;;;;;;;;5035182;28;20364;-81
2023/07/01 04:19:49;;;;;;;14.30;7.15;;;;;;;;;;5035331;28;20033;-81
2023/07/01 04:22:14;;;;;;;8.95;6.55;;;;;;;;;;5000915;28;20037;-80
2023/07/01 04:24:40;;;;;;;10.45;7.68;;;;;;;;;;5017223;28;20029;-81
2023/07/01 04:27:05;;;;;;;11.02;7.05;;;;;;;;;;5034939;28;20022;-81
2023/07/01 04:29:31;;;;;;;8.90;7.07;;;;;;;;;;5034894;28;20029;-80
2023/07/01 04:31:56;;;;;;;11.48;7.45;;;;;;;;;;5000894;28;20037;-82
2023/07/01 04:34:21;;;;;;;12.57;7.88;;;;;;;;;;5017052;28;20032;-82
2023/07/01 04:36:47;;;;;;;9.90;7.30;;;;;;;;;;5017424;28;20033;-82
2023/07/01 04:39:12;;;;;;;8.77;6.53;;;;;;;;;;5000599;28;20036;-82
2023/07/01 04:41:38;;;;;;;7.35;6.13;;;;;;;;;;5017114;28;20084;-81
2023/07/01 04:44:05;;;;;;;9.77;6.15;;;;;;;;;;5001073;28;20057;-82
2023/07/01 04:46:32;;;;;;;10.50;6.32;;;;;;;;;;5017314;28;20437;-81
2023/07/01 04:48:59;;;;;;;9.70;6.78;;;;;;;;;;5017195;28;20029;-81
2023/07/01 04:51:25;;;;;;;8.18;6.32;;;;;;;;;;5034894;28;20045;-82
2023/07/01 04:53:50;;;;;;;6.80;6.13;;;;;;;;;;5016592;28;20061;-82
2023/07/01 04:56:16;;;;;;;6.55;5.93;;;;;;;;;;5000617;28;20060;-82
2023/07/01 04:58:41;;;;;;;12.85;6.47;;;;;;;;;;5016669;28;20134;-82
2023/07/01 05:01:07;;;;;;;11.55;6.40;;;;;;;;;;5034168;28;20036;-81
2023/07/01 05:03:32;;;;;;;9.40;6.68;;;;;;;;;;5016775;28;20044;-81
2023/07/01 05:05:58;;;;;;;16.10;6.85;;;;;;;;;;5016722;28;20025;-80
2023/07/01 05:08:23;;;;;;;9.32;7.28;;;;;;;;;;5034093;28;20052;-80
2023/07/01 05:10:49;;;;;;;9.82;7.22;;;;;;;;;;5000455;28;20075;-80
2023/07/01 05:13:14;;;;;;;10.10;7.60;;;;;;;;;;5016526;28;20056;-81
2023/07/01 05:15:40;;;;;;;12.35;8.13;;;;;;;;;;5016595;28;20456;-80
2023/07/01 05:18:06;;;;;;;13.32;8.93;;;;;;;;;;5016568;28;20056;-80
2023/07/01 05:20:32;;;;;;;11.23;8.60;;;;;;;;;;5016613;28;20037;-80
2023/07/01 05:22:58;;;;;;;13.18;8.10;;;;;;;;;;5016121;28;20041;-80
2023/07/01 05:25:23;;;;;;;8.88;7.97;;;;;;;;;;5016967;28;20128;-81
2023/07/01 05:27:48;;;;;;;10.07;7.75;;;;;;;;;;5034457;28;20034;-81
2023/07/01 05:30:14;;;;;;;10.88;7.70;;;;;;;;;;5016800;28;20364;-81
2023/07/01 05:32:39;;;;;;;12.63;8.77;;;;;;;;;;5034156;28;20429;-81
2023/07/01 05:35:05;;;;;;;15.63;8.57;;;;;;;;;;5000717;28;20440;-81
2023/07/01 05:37:31;;;;;;;8.55;7.63;;;;;;;;;;5016649;28;20045;-81
2023/07/01 05:39:56;;;;;;;10.55;7.53;;;;;;;;;;5024835;28;20044;-81
2023/07/01 05:42:21;;;;;;;9.10;8.00;;;;;;;;;;5000604;28;20041;-81
2023/07/01 05:44:47;;;;;;;9.35;7.93;;;;;;;;;;5030097;28;20009;-82
2023/07/01 05:47:12;;;;;;;10.88;8.02;;;;;;;;;;5018983;28;20037;-82
2023/07/01 05:49:38;;;;;;;17.55;8.45;;;;;;;;;;5025159;28;20041;-79
2023/07/01 05:52:03;;;;;;;13.25;7.65;;;;;;;;;;5038495;28;20064;-80
2023/07/01 05:54:29;;;;;;;9.88;7.32;;;;;;;;;;5035320;28;20049;-79
2023/07/01 05:56:54;;;;;;;13.52;7.60;;;;;;;;;;5024579;28;20030;-82
2023/07/01 05:59:20;;;;;;;7.70;6.72;;;;;;;;;;5003934;28;20026;-82
2023/07/01 06:01:45;;;;;;;8.23;6.78;;;;;;;;;;5020140;28;20022;-83
2023/07/01 06:04:11;;;;;;;10.13;7.50;;;;;;;;;;5020271;28;20029;-82
2023/07/01 06:06:38;;;;;;;11.27;6.47;;;;;;;;;;5037432;28;20052;-82
2023/07/01 06:09:04;;;;;;;10.50;7.35;;;;;;;;;;5038062;28;20029;-82
2023/07/01 06:11:30;;;;;;;8.15;6.75;;;;;;;;;;5037548;28;20364;-82
2023/07/01 06:13:55;;;;;;;10.02;6.88;;;;;;;;;;5019933;28;20032;-79
2023/07/01 06:16:21;;;;;;;9.70;6.65;;;;;;;;;;5019755;28;20064;-80
2023/07/01 06:18:46;;;;;;;10.85;6.30;;;;;;;;;;5003514;28;20092;-80
2023/07/01 06:21:11;;;;;;;7.20;6.13;;;;;;;;;;5037005;28;20079;-80
2023/07/01 06:23:37;;;;;;;10.02;6.32;;;;;;;;;;5019708;28;20032;-81
2023/07/01 06:26:03;;;;;;;16.40;6.50;;;;;;;;;;5019816;28;20076;-81
2023/07/01 06:28:28;;;;;;;8.07;6.07;;;;;;;;;;5019592;28;20036;-81
2023/07/01 06:30:54;;;;;;;7.93;6.47;;;;;;;;;;5019245;28;20104;-81
2023/07/01 06:33:19;;;;;;;17.30;6.20;;;;;;;;;;5003291;28;20033;-80
2023/07/01 06:35:45;;;;;;;11.30;5.60;;;;;;;;;;5019162;28;20045;-82
2023/07/01 06:38:11;;;;;;;14.77;5.80;;;;;;;;;;5019518;28;20510;-81
2023/07/01 06:40:36;;;;;;;10.27;5.80;;;;;;;;;;5003108;28;20022;-81
2023/07/01 06:43:02;;;;;;;11.25;5.63;;;;;;;;;;5002985;28;20039;-81
2023/07/01 06:45:28;;;;;;;13.68;6.20;;;;;;;;;;5037001;28;20022;-81
2023/07/01 06:47:54;;;;;;;8.82;5.88;;;;;;;;;;5003035;28;20025;-81
2023/07/01 06:50:19;;;;;;;7.65;5.85;;;;;;;;;;5018755;28;20030;-81
2023/07/01 06:52:45;;;;;;;9.25;5.68;;;;;;;;;;5019233;28;20053;-81
2023/07/01 06:55:13;;;;;;;9.77;5.88;;;;;;;;;;5002851;28;20037;-81
2023/07/01 06:57:39;;;;;;;10.52;5.90;;;;;;;;;;5036553;28;20107;-81
2023/07/01 07:00:05;;;;;;;8.73;5.70;;;;;;;;;;5018913;28;20456;-80
2023/07/01 07:02:30;;;;;;;7.30;5.40;;;;;;;;;;5018551;28;20059;-81
2023/07/01 07:04:56;;;;;;;11.57;4.90;;;;;;;;;;5019263;28;20038;-80
2023/07/01 07:07:21;;;;;;;11.73;4.93;;;;;;;;;;5019573;28;20037;-80
2023/07/01 07:09:46;;;;;;;9.55;5.30;;;;;;;;;;5018869;28;20029;-80
2023/07/01 07:12:12;;;;;;;12.68;5.80;;;;;;;;;;5018888;28;20094;-80
2023/07/01 07:14:39;;;;;;;9.50;5.13;;;;;;;;;;5036370;28;20466;-80
2023/07/01 07:17:04;;;;;;;9.77;5.80;;;;;;;;;;5018672;28;20029;-80
2023/07/01 07:19:30;;;;;;;8.70;5.85;;;;;;;;;;5018733;28;20029;-80
2023/07/01 07:21:55;;;;;;;8.85;6.35;;;;;;;;;;5018431;28;20064;-80
2023/07/01 07:24:21;;;;;;;10.32;6.40;;;;;;;;;;5019069;28;20057;-82
2023/07/01 07:26:55;;;;;;;8.25;6.40;;;;;;;;;;5019366;28;20428;-80
2023/07/01 07:29:21;;;;;;;12.77;7.22;;;;;;;;;;5035998;28;20025;-81
2023/07/01 07:31:47;;;;;;;14.48;6.55;;;;;;;;;;5018132;28;20030;-81
2023/07/01 07:34:12;;;;;;;12.13;6.45;;;;;;;;;;5036194;28;20470;-80
2023/07/01 07:36:37;;;;;;;6.82;5.40;;;;;;;;;;5018382;28;20365;-81
2023/07/01 07:39:03;;;;;;;6.88;6.18;;;;;;;;;;5001946;28;20087;-81
2023/07/01 07:41:28;;;;;;;8.85;5.20;;;;;;;;;;5002016;28;20432;-81
2023/07/01 07:43:54;;;;;;;8.65;5.45;;;;;;;;;;5002187;28;20364;-80
2023/07/01 07:46:19;;;;;;;6.05;5.35;;;;;;;;;;5018287;28;20052;-81
2023/07/01 07:48:45;;;;;;;8.43;5.68;;;;;;;;;;5001756;28;20040;-81
2023/07/01 07:51:10;;;;;;;7.15;5.82;;;;;;;;;;4985740;28;20029;-80
2023/07/01 07:53:35;;;;;;;7.47;5.22;;;;;;;;;;5017843;28;20152;-81
2023/07/01 07:56:01;;;;;;;8.88;5.35;;;;;;;;;;5001519;28;20079;-81
2023/07/01 07:58:26;;;;;;;6.15;5.10;;;;;;;;;;5001809;28;20025;-80
2023/07/01 08:00:52;;;;;;;9.15;4.72;;;;;;;;;;5001988;28;20422;-80
2023/07/01 08:03:17;;;;;;;8.40;4.70;;;;;;;;;;5001680;28;20080;-81
2023/07/01 08:05:43;;;;;;;5.25;4.63;;;;;;;;;;5017938;28;20163;-81
2023/07/01 08:08:08;;;;;;;8.23;4.70;;;;;;;;;;5018306;28;20375;-81
2023/07/01 08:10:33;;;;;;;3.80;3.47;;;;;;;;;;5034986;28;20032;-81
2023/07/01 08:12:59;;;;;;;4.00;3.60;;;;;;;;;;5016906;28;20488;-81
2023/07/01 08:15:24;;;;;;;9.75;4.05;;;;;;;;;;5034799;28;20460;-81
2023/07/01 08:17:50;;;;;;;5.47;3.78;;;;;;;;;;5001382;28;20383;-82
2023/07/01 08:20:15;;;;;;;10.15;3.70;;;;;;;;;;5017499;28;20087;-82
2023/07/01 08:22:41;;;;;;;7.03;4.30;;;;;;;;;;5001115;28;20087;-80
2023/07/01 08:25:06;;;;;;;4.25;3.42;;;;;;;;;;4985042;28;20038;-81
2023/07/01 08:27:32;;;;;;;5.47;3.25;;;;;;;;;;5017585;28;20049;-80
2023/07/01 08:29:57;;;;;;;8.27;4.05;;;;;;;;;;5017072;28;20693;-80
2023/07/01 08:32:23;;;;;;;7.95;4.15;;;;;;;;;;5035014;28;20110;-80
2023/07/01 08:34:49;;;;;;;6.50;3.80;;;;;;;;;;5017200;28;20091;-81
2023/07/01 08:37:14;;;;;;;6.45;4.00;;;;;;;;;;5017422;28;20440;-81
2023/07/01 08:39:40;;;;;;;8.38;4.00;;;;;;;;;;5016263;28;20124;-81
2023/07/01 08:42:05;;;;;;;4.93;4.30;;;;;;;;;;5015614;28;20022;-81
2023/07/01 08:44:31;;;;;;;8.60;4.15;;;;;;;;;;4998669;28;20079;-81
2023/07/01 08:46:57;;;;;;;5.15;3.67;;;;;;;;;;5016070;28;20115;-81
2023/07/01 08:49:22;;;;;;;5.53;3.85;;;;;;;;;;5016693;28;20057;-81
2023/07/01 08:51:51;;;;;;;5.47;4.35;;;;;;;;;;5016608;28;20033;-80
2023/07/01 08:54:17;;;;;;;5.63;4.43;;;;;;;;;;5016817;28;20364;-80
2023/07/01 08:56:42;;;;;;;5.65;3.88;;;;;;;;;;4984273;28;20033;-81
2023/07/01 08:59:08;;;;;;;5.72;4.40;;;;;;;;;;4984004;28;20119;-81
2023/07/01 09:01:33;;;;;;;5.25;4.25;;;;;;;;;;4998744;28;20030;-81
2023/07/01 09:04:00;;;;;;;5.20;4.40;;;;;;;;;;5015066;28;20025;-81
2023/07/01 09:06:25;;;;;;;11.38;3.83;;;;;;;;;;4998750;28;20037;-81
2023/07/01 09:08:54;;;;;;;7.68;4.05;;;;;;;;;;5034072;28;20453;-81
2023/07/01 09:11:19;;;;;;;5.43;4.22;;;;;;;;;;5015431;28;20073;-81
2023/07/01 09:13:45;;;;;;;4.45;4.03;;;;;;;;;;5032400;28;20420;-80
2023/07/01 09:16:10;;;;;;;4.00;3.70;;;;;;;;;;4999472;28;20076;-81
2023/07/01 09:18:36;;;;;;;6.05;4.18;;;;;;;;;;5000104;28;20456;-81
2023/07/01 09:21:01;;;;;;;6.43;3.67;;;;;;;;;;5016341;28;20036;-80
2023/07/01 09:23:27;;;;;;;6.35;3.80;;;;;;;;;;5033893;28;20087;-81
2023/07/01 09:25:54;;;;;;;5.55;3.85;;;;;;;;;;5016474;28;20373;-81
2023/07/01 09:28:32;;;;;;;4.40;3.90;;;;;;;;;;5000959;28;20025;-82
2023/07/01 09:31:01;;;;;;;4.10;3.70;;;;;;;;;;5000208;28;20051;-83
2023/07/01 09:33:26;;;;;;;4.28;3.80;;;;;;;;;;5016195;28;20022;-82
2023/07/01 09:36:01;;;;;;;6.53;3.85;;;;;;;;;;4999660;28;20091;-82
2023/07/01 09:38:29;;;;;;;8.13;3.67;;;;;;;;;;5017549;28;20361;-82
2023/07/01 09:40:55;;;;;;;6.63;4.13;;;;;;;;;;5000311;28;20021;-82
2023/07/01 09:43:31;;;;;;;4.95;4.07;;;;;;;;;;5016102;28;20033;-82
2023/07/01 09:45:56;;;;;;;5.80;3.60;;;;;;;;;;5016510;28;20029;-81
2023/07/01 09:48:22;;;;;;;8.95;3.88;;;;;;;;;;5034383;28;20039;-82
2023/07/01 09:50:48;;;;;;;6.65;3.80;;;;;;;;;;5017015;28;20118;-82
2023/07/01 09:53:21;;;;;;;11.43;4.05;;;;;;;;;;4999954;28;20057;-83
2023/07/01 09:55:47;;;;;;;7.72;3.72;;;;;;;;;;5016370;28;20049;-83
2023/07/01 09:58:13;;;;;;;6.40;3.50;;;;;;;;;;4999868;28;20079;-80
2023/07/01 10:00:39;;;;;;;7.80;3.90;;;;;;;;;;4999541;28;20041;-80
2023/07/01 10:03:04;;;;;;;4.65;3.40;;;;;;;;;;5016195;28;20033;-81
2023/07/01 10:05:31;;;;;;;4.53;3.65;;;;;;;;;;4999636;28;20376;-80
2023/07/01 10:07:56;;;;;;;7.78;3.50;;;;;;;;;;5016037;28;20112;-81
2023/07/01 10:10:21;;;;;;;6.03;3.60;;;;;;;;;;5016852;28;20488;-81
2023/07/01 10:12:47;;;;;;;8.48;3.55;;;;;;;;;;5016205;28;20131;-82
2023/07/01 10:15:15;;;;;;;6.85;3.80;;;;;;;;;;5016107;28;20068;-82
2023/07/01 10:17:51;;;;;;;3.47;3.17;;;;;;;;;;5015866;28;20452;-82
2023/07/01 10:20:27;;;;;;;4.25;3.78;;;;;;;;;;5016300;28;20468;-82
2023/07/01 10:22:54;;;;;;;8.88;3.85;;;;;;;;;;5033787;28;20029;-80
2023/07/01 10:25:40;;;;;;;8.05;3.67;;;;;;;;;;5016261;28;20179;-81
2023/07/01 10:28:12;;;;;;;4.05;3.40;;;;;;;;;;5015613;28;20439;-82
2023/07/01 10:30:44;;;;;;;4.47;2.97;;;;;;;;;;5017246;28;20074;-80
2023/07/01 10:33:30;;;;;;;4.47;3.03;;;;;;;;;;5017495;28;20042;-82
2023/07/01 10:36:10;;;;;;;4.20;3.25;;;;;;;;;;5037225;28;20094;-81
2023/07/01 10:38:36;;;;;;;8.30;2.95;;;;;;;;;;5002963;28;20120;-81
2023/07/01 10:41:02;;;;;;;4.20;3.08;;;;;;;;;;5019105;28;20143;-80
2023/07/01 10:43:31;;;;;;;4.82;2.90;;;;;;;;;;5019749;28;20416;-81
2023/07/01 10:46:07;;;;;;;6.38;3.30;;;;;;;;;;5019041;28;20435;-80
2023/07/01 10:48:33;;;;;;;6.28;3.30;;;;;;;;;;5019798;28;20033;-81
2023/07/01 10:51:25;;;;;;;5.05;3.30;;;;;;;;;;5020109;28;20030;-81
2023/07/01 10:54:07;;;;;;;4.75;3.30;;;;;;;;;;5019716;28;20045;-81
2023/07/01 10:56:38;;;;;;;5.82;3.35;;;;;;;;;;5018770;28;20526;-80
2023/07/01 10:59:21;;;;;;;5.68;3.45;;;;;;;;;;5018949;28;20540;-80
2023/07/01 11:01:56;;;;;;;7.13;3.30;;;;;;;;;;5018995;28;20025;-81
2023/07/01 11:04:22;;;;;;;7.40;3.30;;;;;;;;;;5019080;28;20038;-80
2023/07/01 11:06:51;;;;;;;9.65;3.08;;;;;;;;;;5018908;28;20107;-81
2023/07/01 11:09:37;;;;;;;8.95;3.45;;;;;;;;;;5002198;28;20029;-81
2023/07/01 11:12:04;;;;;;;4.43;3.20;;;;;;;;;;5036793;28;20109;-81
2023/07/01 11:14:34;;;;;;;8.52;3.05;;;;;;;;;;5019008;28;20152;-80
2023/07/01 11:17:09;;;;;;;5.30;3.20;;;;;;;;;;5002420;28;20038;-81
2023/07/01 11:19:34;;;;;;;3.90;3.50;;;;;;;;;;5036237;28;20338;-79
2023/07/01 11:22:01;;;;;;;4.70;2.88;;;;;;;;;;5018746;28;20087;-81
2023/07/01 11:24:26;;;;;;;3.67;3.38;;;;;;;;;;5018366;28;20116;-81
2023/07/01 11:26:52;;;;;;;4.45;3.22;;;;;;;;;;5002319;28;20101;-80
2023/07/01 11:29:17;;;;;;;4.85;3.28;;;;;;;;;;5018202;28;20029;-81
2023/07/01 11:31:43;;;;;;;4.50;3.20;;;;;;;;;;5018873;28;20037;-82
2023/07/01 11:34:15;;;;;;;5.03;3.20;;;;;;;;;;5018336;28;20033;-81
2023/07/01 11:36:44;;;;;;;3.20;2.90;;;;;;;;;;5019099;28;20460;-81
2023/07/01 11:39:15;;;;;;;;;;;;;;;;;;5002638;28;20090;-81
2023/07/01 11:41:52;;;;;;;4.35;3.17;;;;;;;;;;5051234;28;19913;-80
2023/07/01 11:44:20;;;;;;;8.77;3.45;;;;;;;;;;5016860;28;20468;-80
2023/07/01 11:46:46;;;;;;;6.03;3.28;;;;;;;;;;5001945;28;20086;-81
2023/07/01 11:49:24;;;;;;;5.22;3.50;;;;;;;;;;5018180;28;20384;-82
2023/07/01 11:51:50;;;;;;;3.85;3.35;;;;;;;;;;5036253;28;20143;-82
2023/07/01 11:54:17;;;;;;;4.72;3.60;;;;;;;;;;5001521;28;20033;-82
2023/07/01 11:56:43;;;;;;;4.43;3.60;;;;;;;;;;5001818;28;20041;-81
2023/07/01 11:59:08;;;;;;;6.18;3.90;;;;;;;;;;5001755;28;20036;-83
2023/07/01 12:01:36;;;;;;;5.55;3.70;;;;;;;;;;5035563;28;20021;-82
2023/07/01 12:04:16;;;;;;;11.02;4.10;;;;;;;;;;5017802;28;20037;-81
2023/07/01 12:06:41;;;;;;;8.57;3.50;;;;;;;;;;5017745;28;20021;-81
2023/07/01 12:09:08;;;;;;;7.85;3.65;;;;;;;;;;5035606;28;20032;-81
2023/07/01 12:11:47;;;;;;;8.75;3.60;;;;;;;;;;5036157;28;20026;-81
2023/07/01 12:14:18;;;;;;;6.72;3.80;;;;;;;;;;5018437;28;20123;-82
2023/07/01 12:16:46;;;;;;;8.43;3.78;;;;;;;;;;5035171;28;20372;-82
2023/07/01 12:19:13;;;;;;;6.57;3.70;;;;;;;;;;5035457;28;20034;-82
2023/07/01 12:21:40;;;;;;;5.00;3.67;;;;;;;;;;5001176;28;20091;-82
2023/07/01 12:24:35;;;;;;;4.03;3.63;;;;;;;;;;5017630;28;20124;-81
2023/07/01 12:27:02;;;;;;;12.10;3.90;;;;;;;;;;5003657;28;20045;-81
2023/07/01 12:29:28;;;;;;;5.13;3.78;;;;;;;;;;5017986;28;20037;-80
2023/07/01 12:31:53;;;;;;;4.60;3.53;;;;;;;;;;5035399;28;20026;-81
2023/07/01 12:34:19;;;;;;;7.35;4.32;;;;;;;;;;5001163;28;20360;-81
2023/07/01 12:36:44;;;;;;;7.38;3.58;;;;;;;;;;5000792;28;20037;-80
2023/07/01 12:39:10;;;;;;;11.57;4.00;;;;;;;;;;5017034;28;20041;-81
2023/07/01 12:41:36;;;;;;;6.78;3.95;;;;;;;;;;5017309;28;20029;-80
2023/07/01 12:44:05;;;;;;;4.15;3.70;;;;;;;;;;5017026;28;20037;-81
2023/07/01 12:46:31;;;;;;;6.60;4.13;;;;;;;;;;5016914;28;20427;-81
2023/07/01 12:48:57;;;;;;;4.57;3.78;;;;;;;;;;5020582;28;20034;-80
2023/07/01 12:51:22;;;;;;;8.57;3.97;;;;;;;;;;5017481;28;20045;-80
2023/07/01 12:53:49;;;;;;;8.32;4.10;;;;;;;;;;5040271;28;20048;-81
2023/07/01 12:56:14;;;;;;;7.82;3.63;;;;;;;;;;5007496;28;20044;-81
2023/07/01 12:58:40;;;;;;;8.20;3.92;;;;;;;;;;5017286;28;20480;-81
2023/07/01 13:01:06;;;;;;;8.95;3.88;;;;;;;;;;5000646;28;20029;-81
2023/07/01 13:03:33;;;;;;;6.45;3.50;;;;;;;;;;5034370;28;20022;-81
2023/07/01 13:05:59;;;;;;;6.50;4.10;;;;;;;;;;5016625;28;20038;-81
2023/07/01 13:08:24;;;;;;;4.78;3.70;;;;;;;;;;5000860;28;20033;-80
2023/07/01 13:10:50;;;;;;;8.38;3.67;;;;;;;;;;5016790;28;20033;-80
2023/07/01 13:13:15;;;;;;;7.63;4.15;;;;;;;;;;5000782;28;20124;-81
2023/07/01 13:15:48;;;;;;;4.53;3.75;;;;;;;;;;5016421;28;20041;-80
2023/07/01 13:18:23;;;;;;;4.78;3.90;;;;;;;;;;5016729;28;20087;-80
2023/07/01 13:20:49;;;;;;;4.43;3.78;;;;;;;;;;5000170;28;20049;-81
2023/07/01 13:23:14;;;;;;;4.07;3.78;;;;;;;;;;5016400;28;20029;-81
2023/07/01 13:25:40;;;;;;;6.10;3.90;;;;;;;;;;5016357;28;20041;-81
2023/07/01 13:28:05;;;;;;;7.68;3.92;;;;;;;;;;4999985;28;20060;-80
2023/07/01 13:30:41;;;;;;;4.25;3.40;;;;;;;;;;4999950;28;20476;-81
2023/07/01 13:33:07;;;;;;;10.80;4.20;;;;;;;;;;5017129;28;20033;-81
2023/07/01 13:35:33;;;;;;;4.20;3.80;;;;;;;;;;4999614;28;20036;-81
2023/07/01 13:38:05;;;;;;;5.25;3.80;;;;;;;;;;4983862;28;20128;-80
2023/07/01 13:40:30;;;;;;;5.60;3.80;;;;;;;;;;5033792;28;20026;-80
2023/07/01 13:42:56;;;;;;;4.35;3.95;;;;;;;;;;5033736;28;20029;-80
2023/07/01 13:45:24;;;;;;;4.70;3.42;;;;;;;;;;5016390;28;20029;-81
2023/07/01 13:47:50;;;;;;;5.20;3.90;;;;;;;;;;5000153;28;20065;-81
2023/07/01 13:50:22;;;;;;;7.90;4.22;;;;;;;;;;5015814;28;20071;-81
2023/07/01 13:52:53;;;;;;;5.60;3.90;;;;;;;;;;5000102;28;20053;-82
2023/07/01 13:55:20;;;;;;;5.65;3.80;;;;;;;;;;4999716;28;20426;-81
2023/07/01 13:57:50;;;;;;;8.10;3.80;;;;;;;;;;5015744;28;20190;-81
2023/07/01 14:00:38;;;;;;;4.40;3.97;;;;;;;;;;4999474;28;20084;-81
2023/07/01 14:03:12;;;;;;;4.18;3.45;;;;;;;;;;5015798;28;20116;-80
2023/07/01 14:05:39;;;;;;;4.45;3.85;;;;;;;;;;4984294;28;20442;-80
2023/07/01 14:08:05;;;;;;;4.50;3.40;;;;;;;;;;5001396;28;20439;-81
2023/07/01 14:10:32;;;;;;;4.20;3.78;;;;;;;;;;5020047;28;20124;-81
2023/07/01 14:12:58;;;;;;;4.50;3.70;;;;;;;;;;5003780;28;20034;-79
2023/07/01 14:15:40;;;;;;;10.40;3.90;;;;;;;;;;5003451;28;20084;-81
2023/07/01 14:18:18;;;;;;;6.18;3.90;;;;;;;;;;5019657;28;20124;-81
2023/07/01 14:20:58;;;;;;;6.93;3.83;;;;;;;;;;5019863;28;20040;-80
2023/07/01 14:23:27;;;;;;;5.70;4.22;;;;;;;;;;5003441;28;20025;-81
2023/07/01 14:25:53;;;;;;;5.28;4.10;;;;;;;;;;5037533;28;20115;-81
2023/07/01 14:28:19;;;;;;;6.68;4.10;;;;;;;;;;5003426;28;20342;-80
2023/07/01 14:30:54;;;;;;;4.43;3.90;;;;;;;;;;5003307;28;20049;-81
2023/07/01 14:33:19;;;;;;;6.88;4.03;;;;;;;;;;5037552;28;20036;-81
2023/07/01 14:35:48;;;;;;;7.25;4.25;;;;;;;;;;5019544;28;20033;-81
2023/07/01 14:38:15;;;;;;;4.78;4.25;;;;;;;;;;5003334;28;20029;-81